Granger, Washington
Current Conditions -  °F | °C
As of 12:53 AM on Friday 24 Oct 2014 (Local Time) from KYKM Reporting Station
Overcast Overcast  
Wind Chill: 44°   Ceiling: 7000
Heat Index: 44°   Visibility: 10mi
Dew Point: 40°   Wind: 3mph
Humidity: 85%   Direction: 290°WNW
Pressure: 30.03"   Gusts: NA
Location:  46.34°N, 120.19°W
Report Text: KYKM 240753Z AUTO 29003KT 10SM OVC070 07/04 A3003 RMK AO2 SLP172 T00670044 401780050
Loading
Personal Weather Stations






























Interactive Weather Map
Tropical Storm Tracking
New forecast layout! Learn more

10-Day Weather Forecast

Advertisements
Track Severe Weather on mobile